createdAt,value
2018-10-16T00:00:59.378Z,99.10
2018-10-16T00:03:27.847Z,99.00
2018-10-16T00:05:56.261Z,99.00
2018-10-16T00:08:24.682Z,99.10
2018-10-16T00:10:53.139Z,99.10
2018-10-16T00:13:21.527Z,99.30
2018-10-16T00:15:49.902Z,99.20
2018-10-16T00:18:18.365Z,99.30
2018-10-16T00:20:46.855Z,99.40
2018-10-16T00:23:15.282Z,99.50
2018-10-16T00:25:43.677Z,99.70
2018-10-16T00:28:12.094Z,99.80
2018-10-16T00:30:40.560Z,99.80
2018-10-16T00:33:09.029Z,99.90
2018-10-16T00:35:37.459Z,99.90
2018-10-16T00:38:06.000Z,99.90
2018-10-16T00:40:34.477Z,99.90
2018-10-16T00:43:03.912Z,99.90
2018-10-16T00:45:32.316Z,99.90
2018-10-16T00:48:00.726Z,99.90
2018-10-16T00:50:29.155Z,99.90
2018-10-16T00:52:57.595Z,99.90
2018-10-16T00:55:27.398Z,99.90
2018-10-16T00:57:55.878Z,99.90
2018-10-16T01:00:24.422Z,99.90
2018-10-16T01:02:52.910Z,99.90
2018-10-16T01:05:21.326Z,99.90
2018-10-16T01:07:49.742Z,99.90
2018-10-16T01:10:18.224Z,99.90
2018-10-16T01:12:46.659Z,99.90
2018-10-16T01:15:15.217Z,99.90
2018-10-16T01:17:43.661Z,99.90
2018-10-16T01:20:13.165Z,99.90
2018-10-16T01:22:42.018Z,99.90
2018-10-16T01:25:11.483Z,99.90
2018-10-16T01:27:40.433Z,99.90
2018-10-16T01:30:08.969Z,99.90
2018-10-16T01:32:37.822Z,99.90
2018-10-16T01:35:07.338Z,99.90
2018-10-16T01:37:35.775Z,99.90
2018-10-16T01:40:05.749Z,99.90
2018-10-16T01:42:34.170Z,99.90
2018-10-16T01:45:02.825Z,99.90
2018-10-16T01:47:31.227Z,99.90
2018-10-16T01:49:59.647Z,99.90
2018-10-16T01:52:28.029Z,99.90
2018-10-16T01:54:56.463Z,99.90
2018-10-16T01:57:25.047Z,99.90
2018-10-16T01:59:53.491Z,99.90
2018-10-16T02:02:21.945Z,99.90
2018-10-16T02:04:50.321Z,99.90
2018-10-16T02:07:18.827Z,99.90
2018-10-16T02:09:47.343Z,99.90
2018-10-16T02:12:15.821Z,99.90
2018-10-16T02:14:44.333Z,99.90
2018-10-16T02:17:12.806Z,99.90
2018-10-16T02:19:41.341Z,99.90
2018-10-16T02:22:09.761Z,99.90
2018-10-16T02:24:38.257Z,99.90
2018-10-16T02:27:06.784Z,99.90
2018-10-16T02:29:35.207Z,99.90
2018-10-16T02:32:04.052Z,99.90
2018-10-16T02:34:32.422Z,99.90
2018-10-16T02:37:00.873Z,99.90
2018-10-16T02:39:29.270Z,99.90
2018-10-16T02:41:57.669Z,99.90
2018-10-16T02:44:26.874Z,99.90
2018-10-16T02:46:55.301Z,99.90
2018-10-16T02:49:23.832Z,99.90
2018-10-16T02:51:52.296Z,99.90
2018-10-16T02:54:20.660Z,99.90
2018-10-16T02:56:49.026Z,99.90
2018-10-16T02:59:17.438Z,99.90
2018-10-16T03:01:45.866Z,99.90
2018-10-16T03:04:14.321Z,99.90
2018-10-16T03:06:42.835Z,99.90
2018-10-16T03:09:11.936Z,99.90
2018-10-16T03:11:41.190Z,99.90
2018-10-16T03:14:09.579Z,99.90
2018-10-16T03:16:37.986Z,99.90
2018-10-16T03:19:06.426Z,99.90
2018-10-16T03:21:35.492Z,99.90
2018-10-16T03:24:03.947Z,99.90
2018-10-16T03:26:32.460Z,99.90
2018-10-16T03:29:00.920Z,99.90
2018-10-16T03:31:29.309Z,99.90
2018-10-16T03:33:58.435Z,99.90
2018-10-16T03:36:26.898Z,99.90
2018-10-16T03:38:55.867Z,99.90
2018-10-16T03:41:24.546Z,99.90
2018-10-16T03:43:58.328Z,99.90
2018-10-16T03:46:27.055Z,99.90
2018-10-16T03:48:55.516Z,99.90
2018-10-16T03:51:24.189Z,99.90
2018-10-16T03:53:55.732Z,99.90
2018-10-16T03:56:24.645Z,99.90
2018-10-16T03:58:53.053Z,99.90
2018-10-16T04:01:21.884Z,99.90
2018-10-16T04:03:50.563Z,99.90
2018-10-16T04:06:19.118Z,99.90
2018-10-16T04:08:47.802Z,99.90
2018-10-16T04:11:16.237Z,99.90
2018-10-16T04:13:44.647Z,99.90
2018-10-16T04:16:13.150Z,99.90
2018-10-16T04:18:41.566Z,99.90
2018-10-16T04:21:10.708Z,99.90
2018-10-16T04:23:40.944Z,99.90
2018-10-16T04:26:09.766Z,99.90
2018-10-16T04:28:38.158Z,99.90
2018-10-16T04:31:07.220Z,99.90
2018-10-16T04:33:35.632Z,99.90
2018-10-16T04:36:04.072Z,99.90
2018-10-16T04:38:32.485Z,99.90
2018-10-16T04:41:01.728Z,99.90
2018-10-16T04:43:30.166Z,99.90
2018-10-16T04:45:58.626Z,99.90
2018-10-16T04:48:27.135Z,99.90
2018-10-16T04:50:55.515Z,99.90
2018-10-16T04:53:23.919Z,99.90
2018-10-16T04:55:52.437Z,99.90
2018-10-16T04:58:20.903Z,99.90
2018-10-16T05:00:49.362Z,99.90
2018-10-16T05:03:17.800Z,99.90
2018-10-16T05:05:46.200Z,99.90
2018-10-16T05:08:14.622Z,99.90
2018-10-16T05:10:43.178Z,99.90
2018-10-16T05:13:11.654Z,99.90
2018-10-16T05:15:40.003Z,99.90
2018-10-16T05:18:08.617Z,99.90
2018-10-16T05:20:36.993Z,99.90
2018-10-16T05:23:05.503Z,99.90
2018-10-16T05:25:33.977Z,99.90
2018-10-16T05:28:02.754Z,99.90
2018-10-16T05:30:31.246Z,99.90
2018-10-16T05:32:59.741Z,99.90
2018-10-16T05:35:28.174Z,99.90
2018-10-16T05:37:56.642Z,99.90
2018-10-16T05:40:25.025Z,99.90
2018-10-16T05:42:53.494Z,99.90
2018-10-16T05:45:21.954Z,99.90
2018-10-16T05:47:50.630Z,99.90
2018-10-16T05:50:19.085Z,99.90
2018-10-16T05:52:47.583Z,99.90
2018-10-16T05:55:16.022Z,99.90
2018-10-16T05:57:44.441Z,99.90
2018-10-16T06:00:24.020Z,99.90
2018-10-16T06:02:52.464Z,99.90
2018-10-16T06:05:20.908Z,99.90
2018-10-16T06:07:49.318Z,99.90
2018-10-16T06:10:17.729Z,99.90
2018-10-16T06:12:46.898Z,99.90
2018-10-16T06:15:15.419Z,99.90
2018-10-16T06:17:43.839Z,99.90
2018-10-16T06:20:13.160Z,99.90
2018-10-16T06:22:42.467Z,99.90
2018-10-16T06:25:11.409Z,99.90
2018-10-16T06:27:41.027Z,99.90
2018-10-16T06:30:09.781Z,99.90
2018-10-16T06:32:38.564Z,99.90
2018-10-16T06:35:07.823Z,99.90
2018-10-16T06:37:36.370Z,99.90
2018-10-16T06:40:05.806Z,99.90
2018-10-16T06:42:34.248Z,99.90
2018-10-16T06:45:02.705Z,99.90
2018-10-16T06:47:31.359Z,99.90
2018-10-16T06:49:59.760Z,99.90
2018-10-16T06:52:28.197Z,99.90
2018-10-16T06:54:57.296Z,99.90
2018-10-16T06:57:25.741Z,99.90
2018-10-16T06:59:54.170Z,99.90
2018-10-16T07:02:22.719Z,99.90
2018-10-16T07:04:51.290Z,99.90
2018-10-16T07:07:19.980Z,99.90
2018-10-16T07:09:48.194Z,99.90
2018-10-16T07:12:16.655Z,99.90
2018-10-16T07:14:45.195Z,99.90
2018-10-16T07:17:13.607Z,99.90
2018-10-16T07:19:42.048Z,99.90
2018-10-16T07:22:11.730Z,99.90
2018-10-16T07:24:40.325Z,99.90
2018-10-16T07:27:09.351Z,99.90
2018-10-16T07:29:37.762Z,99.90
2018-10-16T07:32:06.427Z,99.90
2018-10-16T07:34:35.602Z,99.90
2018-10-16T07:37:04.029Z,99.90
2018-10-16T07:39:32.990Z,99.90
2018-10-16T07:42:01.430Z,99.90
2018-10-16T07:44:30.018Z,99.90
2018-10-16T07:46:58.553Z,99.90
2018-10-16T07:49:27.567Z,98.80
2018-10-16T07:51:56.011Z,97.70
2018-10-16T07:54:24.445Z,97.00
2018-10-16T07:56:52.967Z,96.40
2018-10-16T07:59:21.413Z,95.50
2018-10-16T08:01:49.844Z,95.10
2018-10-16T08:04:18.327Z,93.80
2018-10-16T08:06:46.873Z,94.20
2018-10-16T08:09:16.519Z,92.70
2018-10-16T08:11:47.293Z,92.90
2018-10-16T08:14:16.966Z,92.20
2018-10-16T08:16:46.728Z,91.40
2018-10-16T08:19:15.413Z,90.60
2018-10-16T08:21:44.535Z,89.60
2018-10-16T08:24:13.569Z,90.10
2018-10-16T08:26:42.081Z,89.90
2018-10-16T08:29:10.508Z,90.00
2018-10-16T08:31:39.686Z,88.40
2018-10-16T08:34:08.151Z,88.00
2018-10-16T08:36:36.601Z,88.50
2018-10-16T08:39:15.546Z,87.60
2018-10-16T08:41:51.743Z,86.70
2018-10-16T08:44:41.111Z,83.10
2018-10-16T08:47:20.816Z,83.60
2018-10-16T08:52:07.086Z,84.00
2018-10-16T08:54:35.546Z,81.00
2018-10-16T08:57:03.971Z,78.60
2018-10-16T08:59:32.392Z,79.00
2018-10-16T09:02:01.742Z,80.70
2018-10-16T09:04:30.198Z,81.90
2018-10-16T09:06:58.636Z,83.60
2018-10-16T09:09:27.045Z,83.90
2018-10-16T09:11:55.466Z,81.00
2018-10-16T09:14:23.899Z,80.80
2018-10-16T09:16:52.342Z,79.30
2018-10-16T09:19:20.752Z,76.30
2018-10-16T09:21:49.196Z,75.50
2018-10-16T09:24:17.627Z,76.00
2018-10-16T09:26:46.077Z,73.90
2018-10-16T09:29:14.597Z,75.20
2018-10-16T09:31:43.131Z,72.60
2018-10-16T09:34:11.559Z,73.90
2018-10-16T09:36:39.958Z,72.40
2018-10-16T09:39:10.044Z,71.90
2018-10-16T09:41:38.497Z,69.80
2018-10-16T09:44:07.007Z,69.20
2018-10-16T09:46:35.439Z,70.10
2018-10-16T09:49:03.917Z,69.90
2018-10-16T09:51:32.338Z,69.80
2018-10-16T09:54:00.754Z,69.30
2018-10-16T09:56:29.152Z,69.60
2018-10-16T09:58:57.585Z,68.90
2018-10-16T10:01:31.186Z,67.90
2018-10-16T10:03:59.581Z,65.30
2018-10-16T10:06:28.062Z,65.40
2018-10-16T10:08:56.482Z,62.50
2018-10-16T10:11:24.850Z,61.60
2018-10-16T10:13:53.286Z,62.00
2018-10-16T10:16:21.722Z,61.70
2018-10-16T10:18:50.246Z,62.70
2018-10-16T10:21:18.670Z,62.60
2018-10-16T10:23:47.204Z,62.90
2018-10-16T10:26:15.616Z,60.80
2018-10-16T10:28:44.088Z,61.40
2018-10-16T10:31:12.492Z,59.90
2018-10-16T10:33:40.948Z,59.60
2018-10-16T10:36:10.440Z,60.10
2018-10-16T10:38:38.972Z,60.00
2018-10-16T10:41:07.510Z,60.70
2018-10-16T10:43:36.084Z,60.50
2018-10-16T10:46:04.973Z,61.20
2018-10-16T10:48:33.537Z,59.90
2018-10-16T10:51:02.189Z,60.30
2018-10-16T10:53:30.390Z,59.10
2018-10-16T10:55:58.827Z,59.10
2018-10-16T10:58:28.465Z,59.00
2018-10-16T11:00:56.886Z,58.40
2018-10-16T11:03:25.452Z,59.60
2018-10-16T11:05:53.730Z,58.70
2018-10-16T11:08:22.278Z,57.80
2018-10-16T11:10:50.793Z,57.30
2018-10-16T11:13:19.252Z,56.50
2018-10-16T11:15:47.614Z,55.60
2018-10-16T11:18:15.987Z,54.90
2018-10-16T11:20:44.402Z,56.00
2018-10-16T11:23:12.851Z,55.60
2018-10-16T11:25:41.276Z,55.40
2018-10-16T11:28:09.691Z,54.50
2018-10-16T11:30:38.151Z,55.30
2018-10-16T11:33:06.629Z,53.70
2018-10-16T11:35:35.062Z,52.20
2018-10-16T11:38:03.525Z,53.20
2018-10-16T11:40:31.972Z,54.20
2018-10-16T11:43:00.443Z,54.10
2018-10-16T11:45:29.071Z,54.30
2018-10-16T11:47:57.535Z,53.90
2018-10-16T11:50:26.049Z,54.60
2018-10-16T11:52:54.480Z,54.30
2018-10-16T11:55:25.901Z,55.40
2018-10-16T11:57:54.255Z,54.90
2018-10-16T12:00:24.791Z,55.30
2018-10-16T12:02:54.102Z,54.70
2018-10-16T12:05:22.911Z,55.20
2018-10-16T12:07:52.220Z,54.80
2018-10-16T12:10:20.630Z,54.40
2018-10-16T12:12:49.028Z,54.80
2018-10-16T12:15:17.582Z,54.90
2018-10-16T12:19:54.707Z,55.50
2018-10-16T12:22:23.119Z,55.50
2018-10-16T12:24:51.642Z,55.90
2018-10-16T12:27:20.104Z,55.30
2018-10-16T12:29:48.581Z,54.80
2018-10-16T12:32:17.055Z,54.00
2018-10-16T12:34:46.006Z,54.30
2018-10-16T12:37:14.465Z,53.90
2018-10-16T12:39:43.033Z,53.30
2018-10-16T12:42:11.573Z,53.60
2018-10-16T12:44:40.067Z,53.60
2018-10-16T12:47:08.599Z,53.60
2018-10-16T12:49:36.913Z,54.60
2018-10-16T12:52:05.369Z,54.60
2018-10-16T12:54:33.802Z,54.80
2018-10-16T12:57:02.272Z,55.20
2018-10-16T12:59:30.842Z,55.90
2018-10-16T13:01:59.244Z,56.00
2018-10-16T13:04:28.365Z,55.00
2018-10-16T13:06:59.682Z,54.50
2018-10-16T13:09:28.222Z,54.70
2018-10-16T13:11:57.153Z,54.00
2018-10-16T13:14:25.967Z,53.90
2018-10-16T13:16:54.444Z,54.20
2018-10-16T13:19:22.744Z,53.90
2018-10-16T13:21:51.199Z,53.90
2018-10-16T13:24:19.548Z,53.20
2018-10-16T13:26:47.985Z,53.20
2018-10-16T13:29:16.472Z,53.80
2018-10-16T13:31:44.813Z,53.40
2018-10-16T13:34:13.341Z,52.70
2018-10-16T13:36:41.861Z,51.80
2018-10-16T13:39:10.204Z,51.30
2018-10-16T13:41:38.650Z,52.90
2018-10-16T13:44:07.164Z,52.50
2018-10-16T13:46:35.647Z,52.00
2018-10-16T13:49:04.067Z,52.60
2018-10-16T13:51:33.198Z,52.70
2018-10-16T13:54:01.555Z,52.60
2018-10-16T13:56:29.954Z,53.70
2018-10-16T13:58:58.466Z,52.40
2018-10-16T14:01:26.857Z,52.30
2018-10-16T14:03:55.254Z,52.80
2018-10-16T14:06:23.809Z,51.80
2018-10-16T14:08:52.261Z,51.90
2018-10-16T14:11:20.658Z,51.80
2018-10-16T14:13:49.201Z,52.80
2018-10-16T14:16:17.741Z,52.80
2018-10-16T14:18:46.063Z,53.30
2018-10-16T14:21:14.770Z,53.50
2018-10-16T14:23:43.216Z,53.50
2018-10-16T14:26:11.724Z,54.00
2018-10-16T14:28:40.048Z,54.50
2018-10-16T14:31:08.444Z,55.30
2018-10-16T14:33:36.894Z,55.80
2018-10-16T14:36:05.484Z,56.10
2018-10-16T14:38:33.978Z,56.30
2018-10-16T14:41:02.379Z,57.00
2018-10-16T14:43:31.239Z,57.20
2018-10-16T14:46:00.359Z,57.40
2018-10-16T14:48:28.810Z,57.90
2018-10-16T14:50:57.325Z,57.10
2018-10-16T14:53:25.773Z,56.90
2018-10-16T14:55:54.210Z,56.90
2018-10-16T14:58:22.609Z,57.90
2018-10-16T15:00:51.049Z,58.60
2018-10-16T15:03:19.495Z,58.30
2018-10-16T15:05:47.914Z,58.90
2018-10-16T15:08:16.422Z,58.20
2018-10-16T15:10:44.922Z,58.10
2018-10-16T15:13:13.340Z,58.50
2018-10-16T15:15:41.774Z,59.50
2018-10-16T15:18:10.208Z,59.10
2018-10-16T15:20:38.751Z,59.20
2018-10-16T15:23:07.168Z,59.50
2018-10-16T15:25:36.469Z,60.50
2018-10-16T15:28:05.262Z,59.80
2018-10-16T15:30:33.915Z,60.90
2018-10-16T15:33:02.382Z,61.50
2018-10-16T15:35:30.785Z,61.20
2018-10-16T15:37:59.215Z,61.60
2018-10-16T15:40:27.665Z,62.10
2018-10-16T15:42:56.175Z,65.70
2018-10-16T15:45:25.138Z,63.60
2018-10-16T15:47:53.669Z,64.60
2018-10-16T15:50:22.193Z,67.00
2018-10-16T15:52:50.758Z,70.00
2018-10-16T15:55:19.136Z,69.60
2018-10-16T15:57:47.631Z,71.20
2018-10-16T16:00:17.085Z,72.40
2018-10-16T16:02:45.398Z,71.40
2018-10-16T16:05:13.867Z,74.00
2018-10-16T16:07:42.382Z,74.80
2018-10-16T16:10:13.441Z,75.90
2018-10-16T16:12:41.948Z,77.20
2018-10-16T16:15:11.451Z,78.70
2018-10-16T16:17:39.888Z,79.40
2018-10-16T16:20:10.139Z,80.20
2018-10-16T16:22:38.650Z,81.10
2018-10-16T16:25:08.642Z,81.80
2018-10-16T16:27:40.339Z,82.10
2018-10-16T16:30:11.106Z,80.90
2018-10-16T16:32:39.690Z,82.60
2018-10-16T16:35:08.214Z,83.50
2018-10-16T16:37:36.718Z,83.90
2018-10-16T16:40:06.820Z,84.90
2018-10-16T16:42:35.172Z,85.00
2018-10-16T16:45:03.775Z,85.80
2018-10-16T16:47:32.871Z,86.00
2018-10-16T16:50:01.406Z,86.60
2018-10-16T16:52:29.765Z,86.50
2018-10-16T16:54:58.183Z,88.00
2018-10-16T16:57:26.630Z,87.80
2018-10-16T16:59:55.074Z,87.70
2018-10-16T17:02:23.508Z,87.60
2018-10-16T17:04:51.952Z,88.20
2018-10-16T17:07:20.450Z,88.70
2018-10-16T17:09:49.205Z,89.10
2018-10-16T17:12:17.643Z,89.50
2018-10-16T17:14:46.121Z,89.50
2018-10-16T17:17:14.512Z,89.70
2018-10-16T17:19:42.982Z,90.00
2018-10-16T17:22:11.453Z,90.10
2018-10-16T17:24:40.056Z,90.30
2018-10-16T17:27:08.482Z,90.20
2018-10-16T17:29:36.898Z,90.30
2018-10-16T17:32:05.430Z,90.60
2018-10-16T17:34:33.843Z,91.00
2018-10-16T17:37:02.254Z,90.90
2018-10-16T17:39:30.708Z,91.00
2018-10-16T17:41:59.291Z,91.30
2018-10-16T17:44:28.007Z,91.40
2018-10-16T17:46:56.398Z,91.20
2018-10-16T17:49:24.788Z,91.20
2018-10-16T17:51:53.481Z,91.50
2018-10-16T17:54:22.066Z,91.70
2018-10-16T17:56:50.487Z,91.60
2018-10-16T17:59:18.961Z,91.70
2018-10-16T18:01:47.379Z,91.90
2018-10-16T18:04:15.816Z,92.30
2018-10-16T18:06:44.386Z,92.40
2018-10-16T18:09:12.858Z,92.50
2018-10-16T18:11:41.571Z,92.40
2018-10-16T18:14:10.153Z,92.60
2018-10-16T18:16:38.582Z,92.50
2018-10-16T18:19:07.479Z,92.70
2018-10-16T18:21:35.887Z,92.80
2018-10-16T18:24:04.420Z,93.10
2018-10-16T18:26:33.101Z,93.30
2018-10-16T18:29:01.499Z,93.40
2018-10-16T18:31:30.035Z,93.50
2018-10-16T18:33:58.471Z,93.30
2018-10-16T18:36:27.603Z,93.40
2018-10-16T18:38:56.521Z,93.30
2018-10-16T18:41:25.102Z,93.60
2018-10-16T18:43:53.646Z,93.50
2018-10-16T18:46:22.070Z,93.60
2018-10-16T18:48:50.729Z,93.90
2018-10-16T18:51:19.023Z,94.00
2018-10-16T18:53:47.658Z,94.10
2018-10-16T18:56:16.065Z,94.00
2018-10-16T18:58:44.621Z,94.20
2018-10-16T19:01:13.025Z,94.10
2018-10-16T19:03:41.736Z,94.50
2018-10-16T19:06:10.411Z,94.20
2018-10-16T19:08:38.891Z,94.10
2018-10-16T19:11:07.386Z,94.10
2018-10-16T19:13:36.010Z,94.10
2018-10-16T19:16:04.798Z,94.10
2018-10-16T19:18:33.300Z,94.20
2018-10-16T19:21:01.897Z,94.10
2018-10-16T19:23:30.245Z,94.30
2018-10-16T19:25:58.647Z,94.70
2018-10-16T19:28:27.111Z,94.80
2018-10-16T19:30:55.586Z,94.80
2018-10-16T19:33:24.230Z,94.80
2018-10-16T19:35:52.744Z,94.80
2018-10-16T19:38:21.677Z,94.90
2018-10-16T19:40:50.159Z,94.90
2018-10-16T19:43:18.679Z,94.70
2018-10-16T19:45:47.254Z,94.60
2018-10-16T19:48:15.704Z,94.50
2018-10-16T19:50:44.100Z,94.60
2018-10-16T19:53:12.526Z,94.50
2018-10-16T19:55:47.367Z,94.70
2018-10-16T19:58:15.832Z,94.60
2018-10-16T20:00:44.241Z,94.60
2018-10-16T20:03:12.730Z,94.50
2018-10-16T20:05:41.151Z,94.60
2018-10-16T20:08:09.662Z,94.60
2018-10-16T20:10:38.075Z,94.40
2018-10-16T20:13:06.545Z,94.80
2018-10-16T20:15:35.152Z,94.70
2018-10-16T20:18:03.566Z,94.90
2018-10-16T20:20:31.950Z,94.70
2018-10-16T20:23:00.367Z,94.80
2018-10-16T20:25:29.963Z,94.80
2018-10-16T20:27:58.525Z,94.90
2018-10-16T20:30:26.990Z,94.80
2018-10-16T20:32:55.446Z,95.00
2018-10-16T20:35:23.867Z,95.10
2018-10-16T20:37:52.325Z,94.90
2018-10-16T20:40:20.814Z,95.00
2018-10-16T20:42:49.252Z,95.00
2018-10-16T20:45:17.655Z,95.40
2018-10-16T20:47:46.093Z,95.40
2018-10-16T20:50:14.648Z,95.40
2018-10-16T20:55:16.847Z,95.60
2018-10-16T20:57:45.268Z,95.50
2018-10-16T21:00:13.708Z,95.50
2018-10-16T21:02:42.121Z,95.60
2018-10-16T21:05:10.850Z,95.60
2018-10-16T21:07:39.045Z,95.70
2018-10-16T21:10:08.070Z,95.70
2018-10-16T21:12:36.507Z,95.70
2018-10-16T21:15:05.464Z,95.90
2018-10-16T21:17:34.056Z,95.90
2018-10-16T21:20:02.853Z,96.10
2018-10-16T21:22:31.512Z,96.00
2018-10-16T21:24:59.929Z,96.00
2018-10-16T21:27:28.602Z,96.00
2018-10-16T21:29:57.273Z,96.00
2018-10-16T21:32:25.833Z,95.90
2018-10-16T21:34:54.263Z,95.90
2018-10-16T21:37:22.846Z,95.80
2018-10-16T21:39:51.383Z,96.00
2018-10-16T21:42:19.777Z,96.00
2018-10-16T21:44:48.220Z,96.10
2018-10-16T21:47:16.767Z,96.20
2018-10-16T21:49:45.136Z,96.30
2018-10-16T21:52:13.597Z,96.50
2018-10-16T21:54:42.005Z,96.50
2018-10-16T21:57:10.416Z,96.60
2018-10-16T21:59:38.988Z,96.70
2018-10-16T22:02:13.197Z,96.60
2018-10-16T22:04:41.638Z,96.80
2018-10-16T22:07:10.348Z,96.80
2018-10-16T22:09:39.658Z,96.90
2018-10-16T22:12:08.138Z,96.90
2018-10-16T22:14:36.530Z,96.80
2018-10-16T22:17:05.245Z,96.90
2018-10-16T22:19:33.677Z,96.90
2018-10-16T22:22:02.142Z,96.80
2018-10-16T22:24:30.573Z,96.70
2018-10-16T22:26:59.065Z,96.80
2018-10-16T22:29:27.519Z,96.90
2018-10-16T22:31:55.920Z,96.90
2018-10-16T22:34:24.369Z,96.90
2018-10-16T22:36:52.783Z,96.90
2018-10-16T22:39:21.269Z,97.10
2018-10-16T22:41:49.675Z,97.20
2018-10-16T22:44:18.097Z,97.20
2018-10-16T22:46:46.512Z,97.40
2018-10-16T22:49:15.030Z,97.30
2018-10-16T22:51:43.452Z,97.10
2018-10-16T22:54:11.890Z,97.10
2018-10-16T22:56:40.284Z,97.10
2018-10-16T22:59:08.701Z,97.00
2018-10-16T23:01:37.179Z,96.50
2018-10-16T23:04:05.616Z,96.80
2018-10-16T23:06:33.978Z,96.20
2018-10-16T23:09:02.425Z,95.80
2018-10-16T23:11:30.884Z,96.00
2018-10-16T23:13:59.253Z,95.90
2018-10-16T23:16:27.678Z,95.70
2018-10-16T23:18:56.161Z,95.90
2018-10-16T23:21:24.581Z,96.00
2018-10-16T23:23:52.985Z,95.60
2018-10-16T23:26:21.449Z,95.90
2018-10-16T23:28:49.865Z,96.00
2018-10-16T23:31:18.293Z,95.90
2018-10-16T23:33:46.726Z,96.10
2018-10-16T23:36:15.172Z,96.10
2018-10-16T23:38:43.649Z,96.30
2018-10-16T23:41:12.060Z,96.50
2018-10-16T23:43:40.539Z,96.40
2018-10-16T23:46:08.873Z,96.60
2018-10-16T23:48:37.549Z,96.90
2018-10-16T23:51:06.714Z,97.00
2018-10-16T23:53:35.113Z,97.30
2018-10-16T23:56:03.734Z,97.40
2018-10-16T23:58:32.138Z,97.60
